createdAt,value
2022-11-15T00:01:52.744Z,10.45
2022-11-15T00:04:38.824Z,11.93
2022-11-15T00:07:53.489Z,11.93
2022-11-15T00:10:30.264Z,13.52
2022-11-15T00:13:16.332Z,13.88
2022-11-15T00:16:02.710Z,10.65
2022-11-15T00:18:50.833Z,12.25
2022-11-15T00:21:37.085Z,18.60
2022-11-15T00:24:22.824Z,13.30
2022-11-15T00:27:08.772Z,12.18
2022-11-15T00:29:54.746Z,15.93
2022-11-15T00:32:40.922Z,11.68
2022-11-15T00:35:26.854Z,11.35
2022-11-15T00:38:12.664Z,12.02
2022-11-15T00:40:58.593Z,14.38
2022-11-15T00:43:44.889Z,12.90
2022-11-15T00:46:30.664Z,13.90
2022-11-15T00:49:16.752Z,9.10
2022-11-15T00:52:02.573Z,10.48
2022-11-15T00:54:48.493Z,10.82
2022-11-15T00:57:34.554Z,12.30
2022-11-15T01:00:20.483Z,9.35
2022-11-15T01:03:06.574Z,16.73
2022-11-15T01:05:52.482Z,15.65
2022-11-15T01:08:40.133Z,13.18
2022-11-15T01:11:26.072Z,11.27
2022-11-15T01:14:12.272Z,11.07
2022-11-15T01:16:57.922Z,11.05
2022-11-15T01:19:43.902Z,12.82
2022-11-15T01:22:29.712Z,11.90
2022-11-15T01:25:15.931Z,14.55
2022-11-15T01:28:01.854Z,12.55
2022-11-15T01:30:47.670Z,9.43
2022-11-15T01:33:36.862Z,11.57
2022-11-15T01:36:23.583Z,9.85
2022-11-15T01:39:09.476Z,13.80
2022-11-15T01:41:55.744Z,10.95
2022-11-15T01:44:44.195Z,11.45
2022-11-15T01:47:37.472Z,7.72
2022-11-15T01:50:31.962Z,10.45
2022-11-15T01:53:20.486Z,10.63
2022-11-15T01:56:13.813Z,11.25
2022-11-15T01:59:02.253Z,14.98
2022-11-15T02:01:48.163Z,7.88
2022-11-15T02:04:38.792Z,7.80
2022-11-15T02:07:25.053Z,8.98
2022-11-15T02:10:14.543Z,8.40
2022-11-15T02:13:01.699Z,8.90
2022-11-15T02:16:19.313Z,12.27
2022-11-15T02:19:42.174Z,10.50
2022-11-15T02:22:59.183Z,11.52
2022-11-15T02:26:15.453Z,11.52
2022-11-15T02:29:11.683Z,11.40
2022-11-15T02:32:21.892Z,12.30
2022-11-15T02:35:48.352Z,10.55
2022-11-15T02:39:08.785Z,12.40
2022-11-15T02:42:33.337Z,7.97
2022-11-15T02:45:31.333Z,8.90
2022-11-15T02:48:19.172Z,13.40
2022-11-15T02:51:05.243Z,8.30
2022-11-15T02:53:51.236Z,9.38
2022-11-15T02:56:37.535Z,8.60
2022-11-15T02:59:53.643Z,8.13
2022-11-15T03:03:16.552Z,9.98
2022-11-15T03:06:26.753Z,9.15
2022-11-15T03:09:27.732Z,8.18
2022-11-15T03:12:22.877Z,8.60
2022-11-15T03:15:18.492Z,8.75
2022-11-15T03:18:13.842Z,10.35
2022-11-15T03:21:02.252Z,9.80
2022-11-15T03:23:49.802Z,6.40
2022-11-15T03:26:39.632Z,9.60
2022-11-15T03:29:34.223Z,7.95
2022-11-15T03:32:26.802Z,9.65
2022-11-15T03:35:25.262Z,10.57
2022-11-15T03:41:27.142Z,8.10
2022-11-15T03:44:27.008Z,6.80
2022-11-15T03:47:42.865Z,7.43
2022-11-15T03:50:29.794Z,9.85
2022-11-15T03:53:15.873Z,7.28
2022-11-15T03:56:01.698Z,8.02
2022-11-15T03:58:47.544Z,6.70
2022-11-15T04:01:33.435Z,9.75
2022-11-15T04:04:19.343Z,8.40
2022-11-15T04:07:05.017Z,8.02
2022-11-15T04:10:09.086Z,8.57
2022-11-15T04:12:54.963Z,10.68
2022-11-15T04:15:40.845Z,6.57
2022-11-15T04:18:26.862Z,7.80
2022-11-15T04:21:31.303Z,8.55
2022-11-15T04:24:17.223Z,7.10
2022-11-15T04:27:03.473Z,7.18
2022-11-15T04:29:49.225Z,12.10
2022-11-15T04:32:35.042Z,5.50
2022-11-15T04:35:20.943Z,6.13
2022-11-15T04:38:08.642Z,7.30
2022-11-15T04:40:54.254Z,8.25
2022-11-15T04:43:40.342Z,8.30
2022-11-15T04:46:26.732Z,9.27
2022-11-15T04:49:12.743Z,6.53
2022-11-15T04:51:58.961Z,6.38
2022-11-15T04:54:44.874Z,5.70
2022-11-15T04:57:30.793Z,7.35
2022-11-15T05:00:18.074Z,6.00
2022-11-15T05:03:22.093Z,6.40
2022-11-15T05:06:08.163Z,7.82
2022-11-15T05:08:54.606Z,8.57
2022-11-15T05:11:41.015Z,5.18
2022-11-15T05:14:26.718Z,5.68
2022-11-15T05:17:12.670Z,5.88
2022-11-15T05:19:58.499Z,6.63
2022-11-15T05:22:44.068Z,6.75
2022-11-15T05:25:29.928Z,5.90
2022-11-15T05:28:15.920Z,6.65
2022-11-15T05:31:19.918Z,5.88
2022-11-15T05:34:07.047Z,7.35
2022-11-15T05:36:52.838Z,5.70
2022-11-15T05:39:38.919Z,8.15
2022-11-15T05:42:28.022Z,7.95
2022-11-15T05:45:13.851Z,8.20
2022-11-15T05:48:06.239Z,7.43
2022-11-15T05:50:52.628Z,6.10
2022-11-15T05:53:38.848Z,6.13
2022-11-15T05:56:24.468Z,9.05
2022-11-15T05:59:12.108Z,6.70
2022-11-15T06:01:58.065Z,5.82
2022-11-15T06:04:43.818Z,6.95
2022-11-15T06:07:31.134Z,8.50
2022-11-15T06:10:17.108Z,6.55
2022-11-15T06:13:05.642Z,7.60
2022-11-15T06:15:51.438Z,6.05
2022-11-15T06:18:37.881Z,5.95
2022-11-15T06:21:24.049Z,6.03
2022-11-15T06:24:09.830Z,8.05
2022-11-15T06:27:15.401Z,9.93
2022-11-15T06:30:08.880Z,5.68
2022-11-15T06:33:06.353Z,6.90
2022-11-15T06:35:52.142Z,7.20
2022-11-15T06:38:38.171Z,7.18
2022-11-15T06:41:24.223Z,5.50
2022-11-15T06:44:10.385Z,6.07
2022-11-15T06:46:56.229Z,7.18
2022-11-15T06:49:42.193Z,7.15
2022-11-15T06:52:33.561Z,7.75
2022-11-15T06:55:19.138Z,8.30
2022-11-15T06:58:05.129Z,6.90
2022-11-15T07:00:51.197Z,6.93
2022-11-15T07:03:38.461Z,7.18
2022-11-15T07:06:24.479Z,6.65
2022-11-15T07:09:10.522Z,5.45
2022-11-15T07:11:56.399Z,9.20
2022-11-15T07:14:42.280Z,7.22
2022-11-15T07:17:28.159Z,6.45
2022-11-15T07:20:14.689Z,7.47
2022-11-15T07:23:03.120Z,5.70
2022-11-15T07:25:48.759Z,6.85
2022-11-15T07:28:35.418Z,7.43
2022-11-15T07:31:21.220Z,8.20
2022-11-15T07:34:47.120Z,8.60
2022-11-15T07:38:22.459Z,7.63
2022-11-15T07:41:08.410Z,7.95
2022-11-15T07:44:09.449Z,6.90
2022-11-15T07:46:55.074Z,6.80
2022-11-15T07:49:40.999Z,7.22
2022-11-15T07:52:26.931Z,7.85
2022-11-15T07:55:13.089Z,6.80
2022-11-15T07:58:07.098Z,7.78
2022-11-15T08:00:53.080Z,8.85
2022-11-15T08:03:39.262Z,7.57
2022-11-15T08:06:25.107Z,7.00
2022-11-15T08:09:11.197Z,7.10
2022-11-15T08:11:57.277Z,9.80
2022-11-15T08:14:43.209Z,8.57
2022-11-15T08:17:33.198Z,8.48
2022-11-15T08:20:20.639Z,8.02
2022-11-15T08:23:07.739Z,8.55
2022-11-15T08:25:53.788Z,10.77
2022-11-15T08:28:39.867Z,9.13
2022-11-15T08:31:25.618Z,8.77
2022-11-15T08:34:11.833Z,10.85
2022-11-15T08:36:57.852Z,8.38
2022-11-15T08:39:43.848Z,9.52
2022-11-15T08:42:29.799Z,10.38
2022-11-15T08:45:16.257Z,9.27
2022-11-15T08:48:05.457Z,9.35
2022-11-15T08:50:55.618Z,9.70
2022-11-15T08:53:41.998Z,7.22
2022-11-15T08:56:27.838Z,8.95
2022-11-15T08:59:13.817Z,7.80
2022-11-15T09:01:59.751Z,6.25
2022-11-15T09:04:45.699Z,10.63
2022-11-15T09:07:32.983Z,7.25
2022-11-15T09:10:18.777Z,10.43
2022-11-15T09:13:04.697Z,8.10
2022-11-15T09:15:50.678Z,8.43
2022-11-15T09:18:36.846Z,8.65
2022-11-15T09:21:22.818Z,10.52
2022-11-15T09:24:09.807Z,8.15
2022-11-15T09:26:55.821Z,8.85
2022-11-15T09:29:41.819Z,10.32
2022-11-15T09:32:35.022Z,8.77
2022-11-15T09:35:24.879Z,8.63
2022-11-15T09:38:11.083Z,8.45
2022-11-15T09:41:09.197Z,11.68
2022-11-15T09:44:25.362Z,7.47
2022-11-15T09:47:49.538Z,8.48
2022-11-15T09:50:37.637Z,9.05
2022-11-15T09:53:05.387Z,9.63
2022-11-15T09:55:59.098Z,10.70
2022-11-15T09:58:55.958Z,7.03
2022-11-15T10:02:02.337Z,8.32
2022-11-15T10:04:30.201Z,7.90
2022-11-15T10:07:22.103Z,10.13
2022-11-15T10:09:58.418Z,9.52
2022-11-15T10:12:28.331Z,8.88
2022-11-15T10:15:05.443Z,10.02
2022-11-15T10:18:11.327Z,9.85
2022-11-15T10:21:06.008Z,8.88
2022-11-15T10:23:45.207Z,10.68
2022-11-15T10:26:45.813Z,10.52
2022-11-15T10:29:27.230Z,8.87
2022-11-15T10:32:19.383Z,8.05
2022-11-15T10:34:57.041Z,10.02
2022-11-15T10:37:33.039Z,10.93
2022-11-15T10:40:15.866Z,12.50
2022-11-15T10:42:43.444Z,9.55
2022-11-15T10:45:32.228Z,11.90
2022-11-15T10:48:20.426Z,11.18
2022-11-15T10:51:31.118Z,8.32
2022-11-15T10:54:37.370Z,9.43
2022-11-15T10:57:23.577Z,10.43
2022-11-15T11:00:35.485Z,10.98
2022-11-15T11:03:27.799Z,10.25
2022-11-15T11:06:18.931Z,8.02
2022-11-15T11:09:13.991Z,10.13
2022-11-15T11:11:53.147Z,11.25
2022-11-15T11:14:23.325Z,10.13
2022-11-15T11:17:01.997Z,10.63
2022-11-15T11:19:32.048Z,8.40
2022-11-15T11:22:17.676Z,7.40
2022-11-15T11:25:09.819Z,11.25
2022-11-15T11:28:14.846Z,8.95
2022-11-15T11:31:06.856Z,10.10
2022-11-15T11:34:02.056Z,10.50
2022-11-15T11:36:52.477Z,9.57
2022-11-15T11:39:43.216Z,9.05
2022-11-15T11:42:35.237Z,7.88
2022-11-15T11:45:21.056Z,11.07
2022-11-15T11:47:57.597Z,8.48
2022-11-15T11:50:29.037Z,7.63
2022-11-15T11:53:04.169Z,7.75
2022-11-15T11:55:42.536Z,7.20
2022-11-15T11:58:15.937Z,10.10
2022-11-15T12:00:48.446Z,8.90
2022-11-15T12:03:40.416Z,10.15
2022-11-15T12:06:36.898Z,8.07
2022-11-15T12:09:36.744Z,7.82
2022-11-15T12:12:29.018Z,8.43
2022-11-15T12:15:17.518Z,8.07
2022-11-15T12:17:46.177Z,7.45
2022-11-15T12:20:28.077Z,8.82
2022-11-15T12:23:17.192Z,7.68
2022-11-15T12:25:54.206Z,8.52
2022-11-15T12:29:06.437Z,9.32
2022-11-15T12:31:49.629Z,8.10
2022-11-15T12:34:23.406Z,8.80
2022-11-15T12:39:20.159Z,7.85
2022-11-15T12:41:56.318Z,6.55
2022-11-15T12:44:32.360Z,8.20
2022-11-15T12:46:59.636Z,7.28
2022-11-15T12:49:29.759Z,10.93
2022-11-15T12:51:59.785Z,8.73
2022-11-15T12:54:28.448Z,9.48
2022-11-15T12:57:04.706Z,8.52
2022-11-15T13:00:03.082Z,10.75
2022-11-15T13:02:37.798Z,7.65
2022-11-15T13:05:18.884Z,6.95
2022-11-15T13:07:46.159Z,11.73
2022-11-15T13:10:13.509Z,9.98
2022-11-15T13:12:46.796Z,9.30
2022-11-15T13:15:14.033Z,7.57
2022-11-15T13:17:48.266Z,9.07
2022-11-15T13:20:22.446Z,7.50
2022-11-15T13:23:20.427Z,8.52
2022-11-15T13:26:17.257Z,9.18
2022-11-15T13:28:56.056Z,10.13
2022-11-15T13:32:00.198Z,7.90
2022-11-15T13:34:51.626Z,8.52
2022-11-15T13:37:22.626Z,8.48
2022-11-15T13:42:32.145Z,9.38
2022-11-15T13:45:25.666Z,8.45
2022-11-15T13:47:57.682Z,13.48
2022-11-15T13:53:16.345Z,14.20
2022-11-15T13:55:43.715Z,10.77
2022-11-15T13:58:13.930Z,9.20
2022-11-15T14:00:44.508Z,9.20
2022-11-15T14:03:25.685Z,9.98
2022-11-15T14:06:13.340Z,13.80
2022-11-15T14:08:42.811Z,9.13
2022-11-15T14:14:25.356Z,10.52
2022-11-15T14:16:56.314Z,8.15
2022-11-15T14:19:26.159Z,10.77
2022-11-15T14:22:14.769Z,9.52
2022-11-15T14:24:44.810Z,14.55
2022-11-15T14:27:27.549Z,9.75
2022-11-15T14:29:55.316Z,10.00
2022-11-15T14:32:28.605Z,10.82
2022-11-15T14:35:01.170Z,11.00
2022-11-15T14:37:35.990Z,9.07
2022-11-15T14:40:06.548Z,10.70
2022-11-15T14:42:34.207Z,9.70
2022-11-15T14:45:01.571Z,10.32
2022-11-15T14:47:28.815Z,14.50
2022-11-15T14:49:56.145Z,13.48
2022-11-15T14:55:29.576Z,20.30
2022-11-15T14:57:57.108Z,7.55
2022-11-15T15:00:24.646Z,10.23
2022-11-15T15:02:54.585Z,11.50
2022-11-15T15:05:45.405Z,9.60
2022-11-15T15:08:13.136Z,10.43
2022-11-15T15:10:46.305Z,10.35
2022-11-15T15:13:22.415Z,11.43
2022-11-15T15:15:51.475Z,12.15
2022-11-15T15:18:21.076Z,11.05
2022-11-15T15:21:04.505Z,8.90
2022-11-15T15:23:32.398Z,7.73
2022-11-15T15:25:59.739Z,9.50
2022-11-15T15:28:31.448Z,9.15
2022-11-15T15:31:02.129Z,12.23
2022-11-15T15:33:29.447Z,8.90
2022-11-15T15:35:56.786Z,11.30
2022-11-15T15:38:24.187Z,9.70
2022-11-15T15:40:51.928Z,9.48
2022-11-15T15:43:19.287Z,10.13
2022-11-15T15:45:46.688Z,11.65
2022-11-15T15:48:15.947Z,10.10
2022-11-15T15:50:44.366Z,9.80
2022-11-15T15:53:13.097Z,13.77
2022-11-15T15:55:40.815Z,12.27
2022-11-15T15:58:09.405Z,9.90
2022-11-15T16:00:37.245Z,11.95
2022-11-15T16:03:04.988Z,14.35
2022-11-15T16:05:32.415Z,12.95
2022-11-15T16:07:59.835Z,19.90
2022-11-15T16:10:38.335Z,16.88
2022-11-15T16:13:05.665Z,9.00
2022-11-15T16:15:33.988Z,6.50
2022-11-15T16:18:02.397Z,5.68
2022-11-15T16:20:45.558Z,9.07
2022-11-15T16:23:15.191Z,14.18
2022-11-15T16:28:32.000Z,14.43
2022-11-15T16:31:09.185Z,13.40
2022-11-15T16:33:37.392Z,15.00
2022-11-15T16:36:07.143Z,14.60
2022-11-15T16:38:34.899Z,23.73
2022-11-15T16:41:02.385Z,22.45
2022-11-15T16:43:29.765Z,14.50
2022-11-15T16:45:56.986Z,14.63
2022-11-15T16:48:28.730Z,16.92
2022-11-15T16:50:59.826Z,25.88
2022-11-15T16:53:27.946Z,19.63
2022-11-15T16:55:58.059Z,18.38
2022-11-15T16:58:25.604Z,15.10
2022-11-15T17:00:54.088Z,16.02
2022-11-15T17:03:27.672Z,17.58
2022-11-15T17:06:24.166Z,18.40
2022-11-15T17:08:57.556Z,14.82
2022-11-15T17:11:36.587Z,15.52
2022-11-15T17:14:09.476Z,17.20
2022-11-15T17:16:47.415Z,14.27
2022-11-15T17:21:54.526Z,17.15
2022-11-15T17:24:22.316Z,18.98
2022-11-15T17:26:52.607Z,17.95
2022-11-15T17:29:22.747Z,19.17
2022-11-15T17:31:58.277Z,20.45
2022-11-15T17:37:24.347Z,13.20
2022-11-15T17:39:51.667Z,14.60
2022-11-15T17:42:19.006Z,10.25
2022-11-15T17:44:46.376Z,13.23
2022-11-15T17:47:13.670Z,17.80
2022-11-15T17:49:41.278Z,19.52
2022-11-15T17:52:08.916Z,19.38
2022-11-15T17:54:36.127Z,14.02
2022-11-15T17:57:03.577Z,13.98
2022-11-15T17:59:30.856Z,17.02
2022-11-15T18:01:58.247Z,14.63
2022-11-15T18:04:28.485Z,12.93
2022-11-15T18:06:56.663Z,12.18
2022-11-15T18:09:24.989Z,11.90
2022-11-15T18:11:53.716Z,13.00
2022-11-15T18:14:21.165Z,15.13
2022-11-15T18:16:48.516Z,18.73
2022-11-15T18:19:15.750Z,19.55
2022-11-15T18:22:05.259Z,14.65
2022-11-15T18:24:35.086Z,18.58
2022-11-15T18:27:03.970Z,13.65
2022-11-15T18:29:31.451Z,18.63
2022-11-15T18:31:59.116Z,18.08
2022-11-15T18:34:33.672Z,20.58
2022-11-15T18:37:04.576Z,21.00
2022-11-15T18:39:31.965Z,21.45
2022-11-15T18:41:59.805Z,18.25
2022-11-15T18:44:30.257Z,20.00
2022-11-15T18:46:57.955Z,22.15
2022-11-15T18:49:25.295Z,17.50
2022-11-15T18:51:52.587Z,20.13
2022-11-15T18:54:26.773Z,18.50
2022-11-15T18:56:57.057Z,20.85
2022-11-15T18:59:24.960Z,19.48
2022-11-15T19:01:52.388Z,23.17
2022-11-15T19:04:40.129Z,23.23
2022-11-15T19:07:07.467Z,20.52
2022-11-15T19:12:15.846Z,16.08
2022-11-15T19:14:43.056Z,20.98
2022-11-15T19:19:51.427Z,23.38
2022-11-15T19:22:18.860Z,16.75
2022-11-15T19:24:46.137Z,16.02
2022-11-15T19:27:13.403Z,21.92
2022-11-15T19:29:41.782Z,15.50
2022-11-15T19:32:09.046Z,17.80
2022-11-15T19:34:36.541Z,23.20
2022-11-15T19:37:04.089Z,18.88
2022-11-15T19:40:04.992Z,17.67
2022-11-15T19:42:32.422Z,15.45
2022-11-15T19:44:59.842Z,15.73
2022-11-15T19:50:10.550Z,17.55
2022-11-15T19:52:37.909Z,23.80
2022-11-15T19:55:05.920Z,17.65
2022-11-15T19:57:33.710Z,15.68
2022-11-15T20:00:06.807Z,17.05
2022-11-15T20:02:34.940Z,17.30
2022-11-15T20:05:02.371Z,16.38
2022-11-15T20:07:31.269Z,17.80
2022-11-15T20:09:59.239Z,18.92
2022-11-15T20:12:26.691Z,22.45
2022-11-15T20:14:54.079Z,16.05
2022-11-15T20:17:21.649Z,21.42
2022-11-15T20:19:49.069Z,24.15
2022-11-15T20:22:16.530Z,19.58
2022-11-15T20:24:44.049Z,15.30
2022-11-15T20:27:11.500Z,18.00
2022-11-15T20:29:43.657Z,19.05
2022-11-15T20:32:12.554Z,18.50
2022-11-15T20:34:39.940Z,17.10
2022-11-15T20:37:07.426Z,22.25
2022-11-15T20:39:35.080Z,21.23
2022-11-15T20:42:02.540Z,17.58
2022-11-15T20:44:30.121Z,17.08
2022-11-15T20:46:57.699Z,13.75
2022-11-15T20:49:25.161Z,22.65
2022-11-15T20:51:52.603Z,23.52
2022-11-15T20:54:20.198Z,17.65
2022-11-15T20:56:47.632Z,20.75
2022-11-15T20:59:15.131Z,19.75
2022-11-15T21:01:43.463Z,19.05
2022-11-15T21:04:11.946Z,18.48
2022-11-15T21:06:40.093Z,18.15
2022-11-15T21:09:28.360Z,18.65
2022-11-15T21:12:13.792Z,19.92
2022-11-15T21:14:43.151Z,15.40
2022-11-15T21:19:52.420Z,17.55
2022-11-15T21:22:19.973Z,19.45
2022-11-15T21:24:47.405Z,22.15
2022-11-15T21:27:15.671Z,11.18
2022-11-15T21:32:29.241Z,16.48
2022-11-15T21:37:38.103Z,13.40
2022-11-15T21:40:05.999Z,13.02
2022-11-15T21:42:33.459Z,20.15
2022-11-15T21:45:19.693Z,18.73
2022-11-15T21:47:47.139Z,13.68
2022-11-15T21:52:56.041Z,19.73
2022-11-15T21:55:23.429Z,18.25
2022-11-15T21:57:50.852Z,12.30
2022-11-15T22:00:37.430Z,21.60
2022-11-15T22:03:04.889Z,18.38
2022-11-15T22:05:32.551Z,18.75
2022-11-15T22:08:00.099Z,17.23
2022-11-15T22:10:27.473Z,15.07
2022-11-15T22:15:36.101Z,21.10
2022-11-15T22:18:03.495Z,18.25
2022-11-15T22:20:44.644Z,18.20
2022-11-15T22:23:12.860Z,19.05
2022-11-15T22:25:40.424Z,15.18
2022-11-15T22:28:07.894Z,21.50
2022-11-15T22:30:35.346Z,21.48
2022-11-15T22:33:02.874Z,20.60
2022-11-15T22:35:30.295Z,15.30
2022-11-15T22:37:57.766Z,16.15
2022-11-15T22:40:25.120Z,12.82
2022-11-15T22:42:52.582Z,16.65
2022-11-15T22:45:20.080Z,14.30
2022-11-15T22:47:47.972Z,15.80
2022-11-15T22:50:15.471Z,14.43
2022-11-15T22:52:43.261Z,12.45
2022-11-15T22:55:10.950Z,13.30
2022-11-15T22:57:38.592Z,12.20
2022-11-15T23:00:12.054Z,14.55
2022-11-15T23:02:39.621Z,20.13
2022-11-15T23:05:07.421Z,13.25
2022-11-15T23:07:35.280Z,14.10
2022-11-15T23:10:25.792Z,20.58
2022-11-15T23:13:11.662Z,21.63
2022-11-15T23:15:57.519Z,20.80
2022-11-15T23:18:25.111Z,19.50
2022-11-15T23:20:52.582Z,19.92
2022-11-15T23:23:20.091Z,22.33
2022-11-15T23:25:47.581Z,21.88
2022-11-15T23:28:15.012Z,16.77
2022-11-15T23:31:00.691Z,21.70
2022-11-15T23:33:46.631Z,16.40
2022-11-15T23:36:14.111Z,22.60
2022-11-15T23:38:41.532Z,20.88
2022-11-15T23:41:08.992Z,19.55
2022-11-15T23:43:36.452Z,21.77
2022-11-15T23:46:03.962Z,15.82
2022-11-15T23:48:31.765Z,20.75
2022-11-15T23:50:59.642Z,18.38
2022-11-15T23:53:27.052Z,22.77
2022-11-15T23:56:07.192Z,16.65
2022-11-15T23:58:35.072Z,19.20
